sensor_id;sensor_type;location;lat;lon;timestamp;P1;durP1;ratioP1;P2;durP2;ratioP2
15528;SDS011;7866;52.280;9.500;2022-09-03T00:02:21;0.80;;;0.70;;
15528;SDS011;7866;52.280;9.500;2022-09-03T00:07:30;0.70;;;0.70;;
15528;SDS011;7866;52.280;9.500;2022-09-03T00:12:37;0.85;;;0.80;;
15528;SDS011;7866;52.280;9.500;2022-09-03T00:17:43;0.80;;;0.80;;
15528;SDS011;7866;52.280;9.500;2022-09-03T00:22:49;3.15;;;0.88;;
15528;SDS011;7866;52.280;9.500;2022-09-03T00:27:54;0.93;;;0.70;;
15528;SDS011;7866;52.280;9.500;2022-09-03T00:33:00;0.70;;;0.70;;
15528;SDS011;7866;52.280;9.500;2022-09-03T00:38:07;0.73;;;0.73;;
15528;SDS011;7866;52.280;9.500;2022-09-03T00:43:11;1.17;;;0.80;;
15528;SDS011;7866;52.280;9.500;2022-09-03T00:48:23;1.02;;;0.70;;
15528;SDS011;7866;52.280;9.500;2022-09-03T00:53:32;2.15;;;0.77;;
15528;SDS011;7866;52.280;9.500;2022-09-03T00:58:47;0.95;;;0.90;;
15528;SDS011;7866;52.280;9.500;2022-09-03T01:04:00;0.70;;;0.70;;
15528;SDS011;7866;52.280;9.500;2022-09-03T01:09:19;4.88;;;1.00;;
15528;SDS011;7866;52.280;9.500;2022-09-03T01:14:36;3.30;;;0.80;;
15528;SDS011;7866;52.280;9.500;2022-09-03T01:20:01;0.83;;;0.83;;
15528;SDS011;7866;52.280;9.500;2022-09-03T01:25:23;1.43;;;0.93;;
15528;SDS011;7866;52.280;9.500;2022-09-03T01:30:41;0.80;;;0.73;;
15528;SDS011;7866;52.280;9.500;2022-09-03T01:35:47;0.90;;;0.90;;
15528;SDS011;7866;52.280;9.500;2022-09-03T01:41:00;1.37;;;1.00;;
15528;SDS011;7866;52.280;9.500;2022-09-03T01:46:26;1.17;;;0.80;;
15528;SDS011;7866;52.280;9.500;2022-09-03T01:51:33;1.57;;;0.80;;
15528;SDS011;7866;52.280;9.500;2022-09-03T01:56:37;1.93;;;1.03;;
15528;SDS011;7866;52.280;9.500;2022-09-03T02:01:52;0.77;;;0.70;;
15528;SDS011;7866;52.280;9.500;2022-09-03T02:07:01;1.30;;;1.00;;
15528;SDS011;7866;52.280;9.500;2022-09-03T02:12:05;1.10;;;1.00;;
15528;SDS011;7866;52.280;9.500;2022-09-03T02:17:12;1.37;;;1.13;;
15528;SDS011;7866;52.280;9.500;2022-09-03T02:22:14;1.20;;;1.10;;
15528;SDS011;7866;52.280;9.500;2022-09-03T02:27:17;1.17;;;1.07;;
15528;SDS011;7866;52.280;9.500;2022-09-03T02:32:21;1.97;;;1.10;;
15528;SDS011;7866;52.280;9.500;2022-09-03T02:37:23;2.80;;;1.07;;
15528;SDS011;7866;52.280;9.500;2022-09-03T02:42:25;1.67;;;1.10;;
15528;SDS011;7866;52.280;9.500;2022-09-03T02:47:30;1.50;;;1.00;;
15528;SDS011;7866;52.280;9.500;2022-09-03T02:52:33;1.00;;;1.00;;
15528;SDS011;7866;52.280;9.500;2022-09-03T02:57:34;1.07;;;1.00;;
15528;SDS011;7866;52.280;9.500;2022-09-03T03:02:38;1.00;;;1.00;;
15528;SDS011;7866;52.280;9.500;2022-09-03T03:07:40;1.20;;;0.97;;
15528;SDS011;7866;52.280;9.500;2022-09-03T03:12:42;0.60;;;0.60;;
15528;SDS011;7866;52.280;9.500;2022-09-03T03:17:45;1.40;;;1.07;;
15528;SDS011;7866;52.280;9.500;2022-09-03T03:22:47;1.63;;;1.10;;
15528;SDS011;7866;52.280;9.500;2022-09-03T03:27:49;1.27;;;1.17;;
15528;SDS011;7866;52.280;9.500;2022-09-03T03:32:53;0.93;;;0.80;;
15528;SDS011;7866;52.280;9.500;2022-09-03T03:37:56;1.87;;;1.10;;
15528;SDS011;7866;52.280;9.500;2022-09-03T03:42:57;1.13;;;1.03;;
15528;SDS011;7866;52.280;9.500;2022-09-03T03:48:00;2.53;;;0.87;;
15528;SDS011;7866;52.280;9.500;2022-09-03T03:53:02;1.13;;;1.07;;
15528;SDS011;7866;52.280;9.500;2022-09-03T03:58:04;1.60;;;1.10;;
15528;SDS011;7866;52.280;9.500;2022-09-03T04:03:07;1.03;;;1.03;;
15528;SDS011;7866;52.280;9.500;2022-09-03T04:08:08;0.97;;;0.97;;
15528;SDS011;7866;52.280;9.500;2022-09-03T04:13:10;1.07;;;0.90;;
15528;SDS011;7866;52.280;9.500;2022-09-03T04:18:13;1.77;;;1.30;;
15528;SDS011;7866;52.280;9.500;2022-09-03T04:23:15;2.80;;;0.97;;
15528;SDS011;7866;52.280;9.500;2022-09-03T04:28:17;1.10;;;1.10;;
15528;SDS011;7866;52.280;9.500;2022-09-03T04:33:20;1.00;;;1.00;;
15528;SDS011;7866;52.280;9.500;2022-09-03T04:38:24;1.37;;;1.10;;
15528;SDS011;7866;52.280;9.500;2022-09-03T04:43:29;1.07;;;1.07;;
15528;SDS011;7866;52.280;9.500;2022-09-03T04:48:33;0.90;;;0.90;;
15528;SDS011;7866;52.280;9.500;2022-09-03T04:53:37;1.97;;;1.37;;
15528;SDS011;7866;52.280;9.500;2022-09-03T04:58:40;0.83;;;0.83;;
15528;SDS011;7866;52.280;9.500;2022-09-03T05:03:45;0.90;;;0.90;;
15528;SDS011;7866;52.280;9.500;2022-09-03T05:08:46;1.70;;;1.10;;
15528;SDS011;7866;52.280;9.500;2022-09-03T05:13:49;1.27;;;1.17;;
15528;SDS011;7866;52.280;9.500;2022-09-03T05:18:53;1.23;;;1.20;;
15528;SDS011;7866;52.280;9.500;2022-09-03T05:23:58;1.23;;;1.17;;
15528;SDS011;7866;52.280;9.500;2022-09-03T05:29:01;1.07;;;0.93;;
15528;SDS011;7866;52.280;9.500;2022-09-03T05:34:07;1.17;;;1.07;;
15528;SDS011;7866;52.280;9.500;2022-09-03T05:39:10;1.03;;;1.00;;
15528;SDS011;7866;52.280;9.500;2022-09-03T05:44:11;1.47;;;1.00;;
15528;SDS011;7866;52.280;9.500;2022-09-03T05:49:15;1.53;;;1.20;;
15528;SDS011;7866;52.280;9.500;2022-09-03T05:54:16;2.17;;;1.10;;
15528;SDS011;7866;52.280;9.500;2022-09-03T05:59:18;1.20;;;1.10;;
15528;SDS011;7866;52.280;9.500;2022-09-03T06:04:21;0.90;;;0.90;;
15528;SDS011;7866;52.280;9.500;2022-09-03T06:09:23;2.13;;;1.30;;
15528;SDS011;7866;52.280;9.500;2022-09-03T06:14:24;4.67;;;1.30;;
15528;SDS011;7866;52.280;9.500;2022-09-03T06:19:27;1.27;;;1.17;;
15528;SDS011;7866;52.280;9.500;2022-09-03T06:24:29;2.00;;;1.37;;
15528;SDS011;7866;52.280;9.500;2022-09-03T06:29:31;1.07;;;0.97;;
15528;SDS011;7866;52.280;9.500;2022-09-03T06:34:36;1.67;;;1.03;;
15528;SDS011;7866;52.280;9.500;2022-09-03T06:39:37;2.25;;;1.30;;
15528;SDS011;7866;52.280;9.500;2022-09-03T06:44:39;0.85;;;0.85;;
15528;SDS011;7866;52.280;9.500;2022-09-03T06:49:42;1.20;;;1.10;;
15528;SDS011;7866;52.280;9.500;2022-09-03T06:54:44;1.35;;;1.25;;
15528;SDS011;7866;52.280;9.500;2022-09-03T06:59:45;2.15;;;1.00;;
15528;SDS011;7866;52.280;9.500;2022-09-03T07:04:49;1.30;;;1.20;;
15528;SDS011;7866;52.280;9.500;2022-09-03T07:09:51;2.30;;;1.40;;
15528;SDS011;7866;52.280;9.500;2022-09-03T07:14:53;4.40;;;1.15;;
15528;SDS011;7866;52.280;9.500;2022-09-03T07:19:56;2.72;;;1.30;;
15528;SDS011;7866;52.280;9.500;2022-09-03T07:24:58;1.80;;;1.13;;
15528;SDS011;7866;52.280;9.500;2022-09-03T07:30:01;1.45;;;1.20;;
15528;SDS011;7866;52.280;9.500;2022-09-03T07:35:04;1.13;;;1.00;;
15528;SDS011;7866;52.280;9.500;2022-09-03T07:40:07;2.17;;;1.13;;
15528;SDS011;7866;52.280;9.500;2022-09-03T07:45:10;1.15;;;1.10;;
15528;SDS011;7866;52.280;9.500;2022-09-03T07:50:13;1.88;;;1.27;;
15528;SDS011;7866;52.280;9.500;2022-09-03T07:55:16;1.67;;;1.10;;
15528;SDS011;7866;52.280;9.500;2022-09-03T08:00:18;1.45;;;1.23;;
15528;SDS011;7866;52.280;9.500;2022-09-03T08:05:21;1.35;;;1.25;;
15528;SDS011;7866;52.280;9.500;2022-09-03T08:10:23;1.73;;;1.08;;
15528;SDS011;7866;52.280;9.500;2022-09-03T08:15:27;1.17;;;1.10;;
15528;SDS011;7866;52.280;9.500;2022-09-03T08:20:30;2.10;;;1.10;;
15528;SDS011;7866;52.280;9.500;2022-09-03T08:25:32;1.48;;;1.02;;
15528;SDS011;7866;52.280;9.500;2022-09-03T08:30:34;2.60;;;1.20;;
15528;SDS011;7866;52.280;9.500;2022-09-03T08:35:38;2.10;;;1.23;;
15528;SDS011;7866;52.280;9.500;2022-09-03T08:40:39;1.02;;;0.93;;
15528;SDS011;7866;52.280;9.500;2022-09-03T08:45:42;1.50;;;1.13;;
15528;SDS011;7866;52.280;9.500;2022-09-03T08:50:45;2.72;;;1.40;;
15528;SDS011;7866;52.280;9.500;2022-09-03T08:55:56;0.88;;;0.88;;
15528;SDS011;7866;52.280;9.500;2022-09-03T09:01:06;1.38;;;1.10;;
15528;SDS011;7866;52.280;9.500;2022-09-03T09:06:17;1.40;;;1.10;;
15528;SDS011;7866;52.280;9.500;2022-09-03T09:11:26;1.92;;;1.40;;
15528;SDS011;7866;52.280;9.500;2022-09-03T09:16:39;1.30;;;1.10;;
15528;SDS011;7866;52.280;9.500;2022-09-03T09:21:50;1.23;;;1.10;;
15528;SDS011;7866;52.280;9.500;2022-09-03T09:26:57;2.67;;;1.00;;
15528;SDS011;7866;52.280;9.500;2022-09-03T09:32:00;1.70;;;1.20;;
15528;SDS011;7866;52.280;9.500;2022-09-03T09:37:05;2.65;;;1.20;;
15528;SDS011;7866;52.280;9.500;2022-09-03T09:42:10;2.38;;;1.10;;
15528;SDS011;7866;52.280;9.500;2022-09-03T09:47:14;1.42;;;0.90;;
15528;SDS011;7866;52.280;9.500;2022-09-03T09:52:24;1.17;;;1.05;;
15528;SDS011;7866;52.280;9.500;2022-09-03T09:57:28;1.60;;;1.25;;
15528;SDS011;7866;52.280;9.500;2022-09-03T10:02:30;2.08;;;0.93;;
15528;SDS011;7866;52.280;9.500;2022-09-03T10:07:38;1.05;;;1.05;;
15528;SDS011;7866;52.280;9.500;2022-09-03T10:12:40;3.75;;;1.05;;
15528;SDS011;7866;52.280;9.500;2022-09-03T10:17:48;1.00;;;1.00;;
15528;SDS011;7866;52.280;9.500;2022-09-03T10:23:05;1.00;;;1.00;;
15528;SDS011;7866;52.280;9.500;2022-09-03T10:28:11;1.98;;;1.10;;
15528;SDS011;7866;52.280;9.500;2022-09-03T10:33:15;1.45;;;1.23;;
15528;SDS011;7866;52.280;9.500;2022-09-03T10:38:25;2.38;;;1.08;;
15528;SDS011;7866;52.280;9.500;2022-09-03T10:43:37;1.63;;;0.90;;
15528;SDS011;7866;52.280;9.500;2022-09-03T10:49:03;0.95;;;0.93;;
15528;SDS011;7866;52.280;9.500;2022-09-03T10:54:20;0.90;;;0.90;;
15528;SDS011;7866;52.280;9.500;2022-09-03T10:59:35;2.05;;;1.40;;
15528;SDS011;7866;52.280;9.500;2022-09-03T11:04:49;1.60;;;1.00;;
15528;SDS011;7866;52.280;9.500;2022-09-03T11:10:00;5.80;;;1.20;;
15528;SDS011;7866;52.280;9.500;2022-09-03T11:15:12;1.83;;;1.10;;
15528;SDS011;7866;52.280;9.500;2022-09-03T11:20:21;2.72;;;1.02;;
15528;SDS011;7866;52.280;9.500;2022-09-03T11:25:27;2.75;;;1.20;;
15528;SDS011;7866;52.280;9.500;2022-09-03T11:30:34;1.85;;;1.15;;
15528;SDS011;7866;52.280;9.500;2022-09-03T11:36:04;1.15;;;1.02;;
15528;SDS011;7866;52.280;9.500;2022-09-03T11:41:12;3.08;;;1.20;;
15528;SDS011;7866;52.280;9.500;2022-09-03T11:46:26;1.38;;;1.00;;
15528;SDS011;7866;52.280;9.500;2022-09-03T11:51:30;1.00;;;0.98;;
15528;SDS011;7866;52.280;9.500;2022-09-03T11:56:36;1.30;;;1.17;;
15528;SDS011;7866;52.280;9.500;2022-09-03T12:01:38;1.52;;;1.00;;
15528;SDS011;7866;52.280;9.500;2022-09-03T12:06:56;2.58;;;0.80;;
15528;SDS011;7866;52.280;9.500;2022-09-03T12:12:17;0.98;;;0.98;;
15528;SDS011;7866;52.280;9.500;2022-09-03T12:17:31;1.85;;;1.30;;
15528;SDS011;7866;52.280;9.500;2022-09-03T12:22:38;1.30;;;0.82;;
15528;SDS011;7866;52.280;9.500;2022-09-03T12:27:42;1.17;;;1.08;;
15528;SDS011;7866;52.280;9.500;2022-09-03T12:32:45;2.05;;;1.00;;
15528;SDS011;7866;52.280;9.500;2022-09-03T12:37:50;1.30;;;1.02;;
15528;SDS011;7866;52.280;9.500;2022-09-03T12:42:54;0.95;;;0.90;;
15528;SDS011;7866;52.280;9.500;2022-09-03T12:47:56;1.58;;;1.10;;
15528;SDS011;7866;52.280;9.500;2022-09-03T12:52:58;1.00;;;1.00;;
15528;SDS011;7866;52.280;9.500;2022-09-03T12:58:04;2.35;;;1.20;;
15528;SDS011;7866;52.280;9.500;2022-09-03T13:03:11;5.32;;;1.13;;
15528;SDS011;7866;52.280;9.500;2022-09-03T13:08:17;3.20;;;1.00;;
15528;SDS011;7866;52.280;9.500;2022-09-03T13:13:24;2.50;;;0.90;;
15528;SDS011;7866;52.280;9.500;2022-09-03T13:18:28;1.10;;;1.00;;
15528;SDS011;7866;52.280;9.500;2022-09-03T13:23:43;2.38;;;1.20;;
15528;SDS011;7866;52.280;9.500;2022-09-03T13:29:05;1.30;;;1.00;;
15528;SDS011;7866;52.280;9.500;2022-09-03T13:34:23;3.90;;;1.08;;
15528;SDS011;7866;52.280;9.500;2022-09-03T13:39:34;2.08;;;1.10;;
15528;SDS011;7866;52.280;9.500;2022-09-03T13:44:43;2.05;;;0.80;;
15528;SDS011;7866;52.280;9.500;2022-09-03T13:49:50;1.15;;;1.00;;
15528;SDS011;7866;52.280;9.500;2022-09-03T13:55:14;0.90;;;0.90;;
15528;SDS011;7866;52.280;9.500;2022-09-03T14:00:24;2.25;;;1.15;;
15528;SDS011;7866;52.280;9.500;2022-09-03T14:05:35;0.75;;;0.70;;
15528;SDS011;7866;52.280;9.500;2022-09-03T14:10:50;2.50;;;1.00;;
15528;SDS011;7866;52.280;9.500;2022-09-03T14:15:59;1.15;;;0.98;;
15528;SDS011;7866;52.280;9.500;2022-09-03T14:21:08;2.35;;;1.00;;
15528;SDS011;7866;52.280;9.500;2022-09-03T14:26:18;4.00;;;1.08;;
15528;SDS011;7866;52.280;9.500;2022-09-03T14:31:26;2.42;;;1.00;;
15528;SDS011;7866;52.280;9.500;2022-09-03T14:36:43;2.03;;;1.10;;
15528;SDS011;7866;52.280;9.500;2022-09-03T14:41:56;1.10;;;1.00;;
15528;SDS011;7866;52.280;9.500;2022-09-03T14:47:16;1.23;;;0.95;;
15528;SDS011;7866;52.280;9.500;2022-09-03T14:52:41;1.13;;;0.90;;
15528;SDS011;7866;52.280;9.500;2022-09-03T14:58:13;2.53;;;1.05;;
15528;SDS011;7866;52.280;9.500;2022-09-03T15:03:35;1.48;;;0.90;;
15528;SDS011;7866;52.280;9.500;2022-09-03T15:08:53;1.17;;;0.90;;
15528;SDS011;7866;52.280;9.500;2022-09-03T15:14:12;4.05;;;1.00;;
15528;SDS011;7866;52.280;9.500;2022-09-03T15:19:28;1.20;;;0.80;;
15528;SDS011;7866;52.280;9.500;2022-09-03T15:24:47;3.13;;;1.05;;
15528;SDS011;7866;52.280;9.500;2022-09-03T15:29:56;1.33;;;0.90;;
15528;SDS011;7866;52.280;9.500;2022-09-03T15:35:07;1.73;;;1.08;;
15528;SDS011;7866;52.280;9.500;2022-09-03T15:40:17;1.08;;;0.90;;
15528;SDS011;7866;52.280;9.500;2022-09-03T15:45:33;3.58;;;1.10;;
15528;SDS011;7866;52.280;9.500;2022-09-03T15:50:47;1.35;;;0.90;;
15528;SDS011;7866;52.280;9.500;2022-09-03T15:56:00;2.95;;;1.00;;
15528;SDS011;7866;52.280;9.500;2022-09-03T16:01:09;2.13;;;1.00;;
15528;SDS011;7866;52.280;9.500;2022-09-03T16:06:27;3.47;;;1.20;;
15528;SDS011;7866;52.280;9.500;2022-09-03T16:11:39;0.95;;;0.85;;
15528;SDS011;7866;52.280;9.500;2022-09-03T16:16:57;2.80;;;1.20;;
15528;SDS011;7866;52.280;9.500;2022-09-03T16:22:05;0.93;;;0.88;;
15528;SDS011;7866;52.280;9.500;2022-09-03T16:27:14;1.05;;;1.02;;
15528;SDS011;7866;52.280;9.500;2022-09-03T16:32:22;1.55;;;1.00;;
15528;SDS011;7866;52.280;9.500;2022-09-03T16:37:38;2.70;;;1.20;;
15528;SDS011;7866;52.280;9.500;2022-09-03T16:42:52;2.58;;;1.08;;
15528;SDS011;7866;52.280;9.500;2022-09-03T16:48:07;1.63;;;1.45;;
15528;SDS011;7866;52.280;9.500;2022-09-03T16:53:21;2.15;;;1.20;;
15528;SDS011;7866;52.280;9.500;2022-09-03T16:58:33;2.88;;;1.90;;
15528;SDS011;7866;52.280;9.500;2022-09-03T17:03:56;2.70;;;1.77;;
15528;SDS011;7866;52.280;9.500;2022-09-03T17:09:30;2.17;;;1.77;;
15528;SDS011;7866;52.280;9.500;2022-09-03T17:20:17;1.88;;;1.77;;
15528;SDS011;7866;52.280;9.500;2022-09-03T17:25:27;1.55;;;1.33;;
15528;SDS011;7866;52.280;9.500;2022-09-03T17:30:36;1.48;;;1.38;;
15528;SDS011;7866;52.280;9.500;2022-09-03T17:35:45;1.40;;;1.30;;
15528;SDS011;7866;52.280;9.500;2022-09-03T17:41:03;1.40;;;1.30;;
15528;SDS011;7866;52.280;9.500;2022-09-03T17:46:19;1.70;;;1.38;;
15528;SDS011;7866;52.280;9.500;2022-09-03T17:51:33;1.38;;;1.10;;
15528;SDS011;7866;52.280;9.500;2022-09-03T17:56:44;1.40;;;1.30;;
15528;SDS011;7866;52.280;9.500;2022-09-03T18:01:50;3.15;;;1.25;;
15528;SDS011;7866;52.280;9.500;2022-09-03T18:07:03;1.55;;;1.45;;
15528;SDS011;7866;52.280;9.500;2022-09-03T18:12:20;2.35;;;1.27;;
15528;SDS011;7866;52.280;9.500;2022-09-03T18:17:34;2.85;;;1.30;;
15528;SDS011;7866;52.280;9.500;2022-09-03T18:22:43;1.20;;;1.10;;
15528;SDS011;7866;52.280;9.500;2022-09-03T18:28:09;4.10;;;1.30;;
15528;SDS011;7866;52.280;9.500;2022-09-03T18:33:33;1.75;;;1.27;;
15528;SDS011;7866;52.280;9.500;2022-09-03T18:38:52;1.65;;;1.40;;
15528;SDS011;7866;52.280;9.500;2022-09-03T18:44:24;1.17;;;1.17;;
15528;SDS011;7866;52.280;9.500;2022-09-03T18:49:53;1.73;;;1.23;;
15528;SDS011;7866;52.280;9.500;2022-09-03T18:55:22;4.70;;;1.10;;
15528;SDS011;7866;52.280;9.500;2022-09-03T19:00:58;1.27;;;1.17;;
15528;SDS011;7866;52.280;9.500;2022-09-03T19:06:25;1.30;;;1.20;;
15528;SDS011;7866;52.280;9.500;2022-09-03T19:11:56;1.20;;;1.10;;
15528;SDS011;7866;52.280;9.500;2022-09-03T19:17:25;1.60;;;1.20;;
15528;SDS011;7866;52.280;9.500;2022-09-03T19:22:54;1.63;;;1.27;;
15528;SDS011;7866;52.280;9.500;2022-09-03T19:28:14;1.40;;;1.30;;
15528;SDS011;7866;52.280;9.500;2022-09-03T19:33:38;1.42;;;1.25;;
15528;SDS011;7866;52.280;9.500;2022-09-03T19:39:10;1.23;;;1.20;;
15528;SDS011;7866;52.280;9.500;2022-09-03T19:44:45;1.30;;;1.20;;
15528;SDS011;7866;52.280;9.500;2022-09-03T19:50:20;1.50;;;1.33;;
15528;SDS011;7866;52.280;9.500;2022-09-03T19:55:43;2.47;;;1.40;;
15528;SDS011;7866;52.280;9.500;2022-09-03T20:01:04;2.08;;;1.30;;
15528;SDS011;7866;52.280;9.500;2022-09-03T20:06:24;1.55;;;1.30;;
15528;SDS011;7866;52.280;9.500;2022-09-03T20:11:43;2.72;;;1.58;;
15528;SDS011;7866;52.280;9.500;2022-09-03T20:16:54;1.40;;;1.35;;
15528;SDS011;7866;52.280;9.500;2022-09-03T20:22:07;1.30;;;1.20;;
15528;SDS011;7866;52.280;9.500;2022-09-03T20:27:21;1.40;;;1.30;;
15528;SDS011;7866;52.280;9.500;2022-09-03T20:32:36;1.45;;;1.35;;
15528;SDS011;7866;52.280;9.500;2022-09-03T20:37:59;1.20;;;1.20;;
15528;SDS011;7866;52.280;9.500;2022-09-03T20:48:38;3.42;;;1.48;;
15528;SDS011;7866;52.280;9.500;2022-09-03T20:53:54;1.55;;;1.45;;
15528;SDS011;7866;52.280;9.500;2022-09-03T20:59:09;1.77;;;1.50;;
15528;SDS011;7866;52.280;9.500;2022-09-03T21:04:20;2.05;;;1.48;;
15528;SDS011;7866;52.280;9.500;2022-09-03T21:09:38;2.58;;;1.40;;
15528;SDS011;7866;52.280;9.500;2022-09-03T21:14:47;1.40;;;1.30;;
15528;SDS011;7866;52.280;9.500;2022-09-03T21:19:59;1.65;;;1.52;;
15528;SDS011;7866;52.280;9.500;2022-09-03T21:25:11;1.60;;;1.50;;
15528;SDS011;7866;52.280;9.500;2022-09-03T21:30:15;2.25;;;1.95;;
15528;SDS011;7866;52.280;9.500;2022-09-03T21:35:20;4.32;;;1.90;;
15528;SDS011;7866;52.280;9.500;2022-09-03T21:40:28;2.65;;;1.50;;
15528;SDS011;7866;52.280;9.500;2022-09-03T21:45:33;3.17;;;1.50;;
15528;SDS011;7866;52.280;9.500;2022-09-03T21:50:41;1.75;;;1.50;;
15528;SDS011;7866;52.280;9.500;2022-09-03T21:55:55;2.47;;;1.52;;
15528;SDS011;7866;52.280;9.500;2022-09-03T22:01:12;2.00;;;1.60;;
15528;SDS011;7866;52.280;9.500;2022-09-03T22:06:21;2.10;;;1.40;;
15528;SDS011;7866;52.280;9.500;2022-09-03T22:11:31;1.48;;;1.38;;
15528;SDS011;7866;52.280;9.500;2022-09-03T22:16:42;3.47;;;1.92;;
15528;SDS011;7866;52.280;9.500;2022-09-03T22:21:49;2.78;;;1.90;;
15528;SDS011;7866;52.280;9.500;2022-09-03T22:27:00;1.65;;;1.55;;
15528;SDS011;7866;52.280;9.500;2022-09-03T22:32:12;3.20;;;1.70;;
15528;SDS011;7866;52.280;9.500;2022-09-03T22:37:26;1.70;;;1.60;;
15528;SDS011;7866;52.280;9.500;2022-09-03T22:42:51;3.95;;;1.67;;
15528;SDS011;7866;52.280;9.500;2022-09-03T22:48:11;1.95;;;1.80;;
15528;SDS011;7866;52.280;9.500;2022-09-03T22:53:35;3.47;;;1.88;;
15528;SDS011;7866;52.280;9.500;2022-09-03T22:58:50;1.63;;;1.52;;
15528;SDS011;7866;52.280;9.500;2022-09-03T23:03:57;1.80;;;1.70;;
15528;SDS011;7866;52.280;9.500;2022-09-03T23:09:07;2.05;;;1.80;;
15528;SDS011;7866;52.280;9.500;2022-09-03T23:14:17;2.75;;;2.13;;
15528;SDS011;7866;52.280;9.500;2022-09-03T23:19:24;3.20;;;1.80;;
15528;SDS011;7866;52.280;9.500;2022-09-03T23:24:40;2.28;;;1.67;;
15528;SDS011;7866;52.280;9.500;2022-09-03T23:29:48;3.33;;;1.58;;
15528;SDS011;7866;52.280;9.500;2022-09-03T23:34:53;1.65;;;1.55;;
15528;SDS011;7866;52.280;9.500;2022-09-03T23:40:09;3.47;;;1.90;;
15528;SDS011;7866;52.280;9.500;2022-09-03T23:45:23;1.80;;;1.70;;
15528;SDS011;7866;52.280;9.500;2022-09-03T23:50:35;4.32;;;1.98;;
15528;SDS011;7866;52.280;9.500;2022-09-03T23:55:46;1.85;;;1.35;;
